createdAt,value
2022-10-01T00:00:36.399Z,481.00
2022-10-01T00:01:36.709Z,483.00
2022-10-01T00:02:36.349Z,481.00
2022-10-01T00:03:36.164Z,483.00
2022-10-01T00:04:36.296Z,481.00
2022-10-01T00:05:36.168Z,485.00
2022-10-01T00:06:36.508Z,482.00
2022-10-01T00:07:36.178Z,482.00
2022-10-01T00:08:36.311Z,486.00
2022-10-01T00:09:36.190Z,487.00
2022-10-01T00:10:36.429Z,488.00
2022-10-01T00:11:36.600Z,488.00
2022-10-01T00:12:36.391Z,487.00
2022-10-01T00:13:36.232Z,487.00
2022-10-01T00:14:36.407Z,485.00
2022-10-01T00:15:36.251Z,481.00
2022-10-01T00:16:36.511Z,480.00
2022-10-01T00:17:36.251Z,479.00
2022-10-01T00:18:36.491Z,480.00
2022-10-01T00:19:36.260Z,478.00
2022-10-01T00:20:36.389Z,480.00
2022-10-01T00:21:36.682Z,476.00
2022-10-01T00:22:36.460Z,478.00
2022-10-01T00:23:36.277Z,475.00
2022-10-01T00:24:36.516Z,474.00
2022-10-01T00:25:36.296Z,477.00
2022-10-01T00:26:36.447Z,475.00
2022-10-01T00:27:36.242Z,478.00
2022-10-01T00:28:36.362Z,479.00
2022-10-01T00:29:36.195Z,481.00
2022-10-01T00:30:40.293Z,480.00
2022-10-01T00:31:36.395Z,481.00
2022-10-01T00:32:36.268Z,479.00
2022-10-01T00:33:36.055Z,480.00
2022-10-01T00:34:36.219Z,478.00
2022-10-01T00:35:36.030Z,479.00
2022-10-01T00:36:36.221Z,477.00
2022-10-01T00:37:36.029Z,479.00
2022-10-01T00:38:36.355Z,482.00
2022-10-01T00:39:36.034Z,484.00
2022-10-01T00:40:36.164Z,484.00
2022-10-01T00:41:36.366Z,484.00
2022-10-01T00:42:36.264Z,484.00
2022-10-01T00:43:36.046Z,484.00
2022-10-01T00:44:36.145Z,484.00
2022-10-01T00:45:36.157Z,488.00
2022-10-01T00:46:36.245Z,484.00
2022-10-01T00:47:36.079Z,486.00
2022-10-01T00:48:36.308Z,485.00
2022-10-01T00:49:36.071Z,487.00
2022-10-01T00:50:36.233Z,484.00
2022-10-01T00:51:36.555Z,483.00
2022-10-01T00:52:36.198Z,484.00
2022-10-01T00:53:36.104Z,482.00
2022-10-01T00:54:36.296Z,484.00
2022-10-01T00:55:36.081Z,482.00
2022-10-01T00:56:36.255Z,470.00
2022-10-01T00:57:36.078Z,468.00
2022-10-01T00:58:36.211Z,471.00
2022-10-01T00:59:36.089Z,472.00
2022-10-01T01:00:36.442Z,476.00
2022-10-01T01:01:36.601Z,477.00
2022-10-01T01:02:36.316Z,477.00
2022-10-01T01:03:36.083Z,478.00
2022-10-01T01:04:36.278Z,478.00
2022-10-01T01:05:36.096Z,476.00
2022-10-01T01:06:36.351Z,478.00
2022-10-01T01:07:36.109Z,479.00
2022-10-01T01:08:36.272Z,479.00
2022-10-01T01:09:36.114Z,480.00
2022-10-01T01:10:36.307Z,481.00
2022-10-01T01:11:36.507Z,480.00
2022-10-01T01:12:36.291Z,479.00
2022-10-01T01:13:36.134Z,479.00
2022-10-01T01:14:36.365Z,477.00
2022-10-01T01:15:36.234Z,477.00
2022-10-01T01:16:36.345Z,476.00
2022-10-01T01:17:36.154Z,476.00
2022-10-01T01:18:36.378Z,477.00
2022-10-01T01:19:36.150Z,475.00
2022-10-01T01:20:36.324Z,476.00
2022-10-01T01:21:36.557Z,477.00
2022-10-01T01:22:36.339Z,476.00
2022-10-01T01:23:36.169Z,476.00
2022-10-01T01:24:36.401Z,477.00
2022-10-01T01:25:36.179Z,478.00
2022-10-01T01:26:36.355Z,477.00
2022-10-01T01:27:36.181Z,476.00
2022-10-01T01:28:36.410Z,476.00
2022-10-01T01:29:36.191Z,476.00
2022-10-01T01:30:36.480Z,478.00
2022-10-01T01:31:36.605Z,478.00
2022-10-01T01:32:36.396Z,479.00
2022-10-01T01:33:36.193Z,476.00
2022-10-01T01:34:36.407Z,476.00
2022-10-01T01:35:36.177Z,476.00
2022-10-01T01:36:36.319Z,474.00
2022-10-01T01:37:36.164Z,474.00
2022-10-01T01:38:36.333Z,475.00
2022-10-01T01:39:36.176Z,477.00
2022-10-01T01:40:36.283Z,476.00
2022-10-01T01:41:36.514Z,475.00
2022-10-01T01:42:36.438Z,474.00
2022-10-01T01:43:36.234Z,475.00
2022-10-01T01:44:36.359Z,476.00
2022-10-01T01:45:36.264Z,477.00
2022-10-01T01:46:36.433Z,477.00
2022-10-01T01:47:36.495Z,476.00
2022-10-01T01:48:36.296Z,477.00
2022-10-01T01:49:36.518Z,478.00
2022-10-01T01:50:36.295Z,477.00
2022-10-01T01:51:36.759Z,475.00
2022-10-01T01:52:36.308Z,477.00
2022-10-01T01:53:36.471Z,478.00
2022-10-01T01:54:36.307Z,475.00
2022-10-01T01:55:36.490Z,474.00
2022-10-01T01:56:36.308Z,474.00
2022-10-01T01:57:36.510Z,472.00
2022-10-01T01:58:36.320Z,473.00
2022-10-01T01:59:36.497Z,474.00
2022-10-01T02:00:36.322Z,476.00
2022-10-01T02:01:36.910Z,475.00
2022-10-01T02:02:36.393Z,475.00
2022-10-01T02:03:36.491Z,475.00
2022-10-01T02:04:36.300Z,475.00
2022-10-01T02:05:36.741Z,475.00
2022-10-01T02:06:36.302Z,472.00
2022-10-01T02:07:36.437Z,472.00
2022-10-01T02:08:36.317Z,472.00
2022-10-01T02:09:36.494Z,474.00
2022-10-01T02:10:36.330Z,476.00
2022-10-01T02:11:36.693Z,476.00
2022-10-01T02:12:36.328Z,474.00
2022-10-01T02:13:36.494Z,475.00
2022-10-01T02:14:36.325Z,476.00
2022-10-01T02:15:36.540Z,477.00
2022-10-01T02:16:36.319Z,478.00
2022-10-01T02:17:36.502Z,479.00
2022-10-01T02:18:36.310Z,479.00
2022-10-01T02:19:36.476Z,480.00
2022-10-01T02:20:36.312Z,481.00
2022-10-01T02:21:36.736Z,482.00
2022-10-01T02:22:36.367Z,482.00
2022-10-01T02:23:36.458Z,483.00
2022-10-01T02:24:36.305Z,485.00
2022-10-01T02:25:36.493Z,487.00
2022-10-01T02:26:36.317Z,485.00
2022-10-01T02:27:36.440Z,478.00
2022-10-01T02:28:36.563Z,478.00
2022-10-01T02:29:36.339Z,482.00
2022-10-01T02:30:36.481Z,481.00
2022-10-01T02:31:36.863Z,477.00
2022-10-01T02:32:36.550Z,480.00
2022-10-01T02:33:36.392Z,482.00
2022-10-01T02:34:36.607Z,482.00
2022-10-01T02:35:36.410Z,477.00
2022-10-01T02:36:36.557Z,476.00
2022-10-01T02:37:36.444Z,481.00
2022-10-01T02:38:36.606Z,478.00
2022-10-01T02:39:36.467Z,480.00
2022-10-01T02:40:36.713Z,483.00
2022-10-01T02:41:36.867Z,482.00
2022-10-01T02:42:36.628Z,479.00
2022-10-01T02:43:40.619Z,480.00
2022-10-01T02:44:36.721Z,482.00
2022-10-01T02:45:36.583Z,481.00
2022-10-01T02:46:36.765Z,485.00
2022-10-01T02:47:36.606Z,481.00
2022-10-01T02:48:36.803Z,482.00
2022-10-01T02:49:36.646Z,486.00
2022-10-01T02:50:36.791Z,488.00
2022-10-01T02:51:36.999Z,481.00
2022-10-01T02:52:36.937Z,477.00
2022-10-01T02:53:36.725Z,476.00
2022-10-01T02:54:36.873Z,476.00
2022-10-01T02:55:36.757Z,484.00
2022-10-01T02:56:36.917Z,485.00
2022-10-01T02:57:36.833Z,481.00
2022-10-01T02:58:36.921Z,479.00
2022-10-01T02:59:36.812Z,472.00
2022-10-01T03:00:37.001Z,477.00
2022-10-01T03:01:37.346Z,481.00
2022-10-01T03:02:37.065Z,481.00
2022-10-01T03:03:36.973Z,479.00
2022-10-01T03:04:37.000Z,477.00
2022-10-01T03:05:36.902Z,478.00
2022-10-01T03:06:37.145Z,475.00
2022-10-01T03:07:36.896Z,477.00
2022-10-01T03:08:37.177Z,479.00
2022-10-01T03:09:36.992Z,481.00
2022-10-01T03:10:37.037Z,478.00
2022-10-01T03:11:36.926Z,476.00
2022-10-01T03:12:37.159Z,477.00
2022-10-01T03:13:36.923Z,477.00
2022-10-01T03:14:37.049Z,480.00
2022-10-01T03:15:37.243Z,485.00
2022-10-01T03:16:36.934Z,481.00
2022-10-01T03:17:37.071Z,476.00
2022-10-01T03:18:36.952Z,477.00
2022-10-01T03:19:37.153Z,472.00
2022-10-01T03:20:36.972Z,473.00
2022-10-01T03:21:37.168Z,475.00
2022-10-01T03:22:36.976Z,476.00
2022-10-01T03:23:37.174Z,478.00
2022-10-01T03:24:37.003Z,481.00
2022-10-01T03:25:37.186Z,482.00
2022-10-01T03:26:37.012Z,481.00
2022-10-01T03:27:37.176Z,481.00
2022-10-01T03:28:37.017Z,482.00
2022-10-01T03:29:37.183Z,486.00
2022-10-01T03:30:37.011Z,480.00
2022-10-01T03:31:37.805Z,486.00
2022-10-01T03:32:37.064Z,483.00
2022-10-01T03:33:37.156Z,485.00
2022-10-01T03:34:37.021Z,480.00
2022-10-01T03:35:37.207Z,481.00
2022-10-01T03:36:37.030Z,486.00
2022-10-01T03:37:37.470Z,484.00
2022-10-01T03:38:37.098Z,487.00
2022-10-01T03:39:37.185Z,484.00
2022-10-01T03:40:37.064Z,477.00
2022-10-01T03:41:37.237Z,477.00
2022-10-01T03:42:37.100Z,482.00
2022-10-01T03:43:37.262Z,485.00
2022-10-01T03:44:37.320Z,483.00
2022-10-01T03:45:37.134Z,486.00
2022-10-01T03:46:37.261Z,489.00
2022-10-01T03:47:37.127Z,486.00
2022-10-01T03:48:37.270Z,487.00
2022-10-01T03:49:37.152Z,488.00
2022-10-01T03:50:37.389Z,483.00
2022-10-01T03:51:37.493Z,481.00
2022-10-01T03:52:37.352Z,482.00
2022-10-01T03:53:37.205Z,479.00
2022-10-01T03:54:37.378Z,483.00
2022-10-01T03:55:37.215Z,483.00
2022-10-01T03:56:37.406Z,477.00
2022-10-01T03:57:37.231Z,482.00
2022-10-01T03:58:37.418Z,479.00
2022-10-01T03:59:37.254Z,479.00
2022-10-01T04:00:37.414Z,481.00
2022-10-01T04:01:37.719Z,477.00
2022-10-01T04:02:37.607Z,477.00
2022-10-01T04:03:37.295Z,478.00
2022-10-01T04:04:37.423Z,478.00
2022-10-01T04:05:37.317Z,477.00
2022-10-01T04:06:37.522Z,477.00
2022-10-01T04:07:37.317Z,481.00
2022-10-01T04:08:37.607Z,480.00
2022-10-01T04:09:37.340Z,482.00
2022-10-01T04:10:37.482Z,482.00
2022-10-01T04:11:37.597Z,483.00
2022-10-01T04:12:37.552Z,481.00
2022-10-01T04:13:37.380Z,482.00
2022-10-01T04:14:37.686Z,479.00
2022-10-01T04:15:37.406Z,481.00
2022-10-01T04:16:38.571Z,479.00
2022-10-01T04:17:37.643Z,476.00
2022-10-01T04:18:37.415Z,478.00
2022-10-01T04:19:37.554Z,478.00
2022-10-01T04:20:37.624Z,477.00
2022-10-01T04:21:37.831Z,478.00
2022-10-01T04:22:37.567Z,477.00
2022-10-01T04:23:37.715Z,478.00
2022-10-01T04:24:37.466Z,476.00
2022-10-01T04:25:37.615Z,476.00
2022-10-01T04:26:37.787Z,474.00
2022-10-01T04:27:37.506Z,476.00
2022-10-01T04:28:37.638Z,477.00
2022-10-01T04:29:40.208Z,479.00
2022-10-01T04:30:38.684Z,477.00
2022-10-01T04:31:38.112Z,478.00
2022-10-01T04:32:37.800Z,479.00
2022-10-01T04:33:37.589Z,480.00
2022-10-01T04:34:37.713Z,478.00
2022-10-01T04:35:37.624Z,471.00
2022-10-01T04:36:37.782Z,475.00
2022-10-01T04:37:37.654Z,477.00
2022-10-01T04:38:37.829Z,478.00
2022-10-01T04:39:37.696Z,477.00
2022-10-01T04:40:37.877Z,475.00
2022-10-01T04:41:38.038Z,476.00
2022-10-01T04:42:37.912Z,476.00
2022-10-01T04:43:37.760Z,473.00
2022-10-01T04:44:38.009Z,475.00
2022-10-01T04:45:37.802Z,480.00
2022-10-01T04:46:38.046Z,479.00
2022-10-01T04:47:37.867Z,482.00
2022-10-01T04:48:38.010Z,485.00
2022-10-01T04:49:37.872Z,483.00
2022-10-01T04:50:38.055Z,487.00
2022-10-01T04:51:37.893Z,488.00
2022-10-01T04:52:38.092Z,484.00
2022-10-01T04:53:37.923Z,484.00
2022-10-01T04:54:38.059Z,485.00
2022-10-01T04:55:38.194Z,486.00
2022-10-01T04:56:37.979Z,487.00
2022-10-01T04:57:38.115Z,489.00
2022-10-01T04:58:38.006Z,488.00
2022-10-01T04:59:38.194Z,487.00
2022-10-01T05:00:38.081Z,487.00
2022-10-01T05:01:38.992Z,491.00
2022-10-01T05:02:38.077Z,488.00
2022-10-01T05:03:38.209Z,489.00
2022-10-01T05:04:38.107Z,488.00
2022-10-01T05:05:38.295Z,490.00
2022-10-01T05:06:38.151Z,489.00
2022-10-01T05:07:38.391Z,487.00
2022-10-01T05:08:38.205Z,486.00
2022-10-01T05:09:38.327Z,484.00
2022-10-01T05:10:38.224Z,482.00
2022-10-01T05:11:38.464Z,482.00
2022-10-01T05:12:38.268Z,484.00
2022-10-01T05:13:38.501Z,481.00
2022-10-01T05:14:38.299Z,481.00
2022-10-01T05:15:38.454Z,482.00
2022-10-01T05:16:38.396Z,481.00
2022-10-01T05:17:38.522Z,480.00
2022-10-01T05:18:38.430Z,480.00
2022-10-01T05:19:38.512Z,479.00
2022-10-01T05:20:38.410Z,478.00
2022-10-01T05:21:38.613Z,476.00
2022-10-01T05:22:38.450Z,480.00
2022-10-01T05:23:38.637Z,482.00
2022-10-01T05:24:38.535Z,484.00
2022-10-01T05:25:38.637Z,486.00
2022-10-01T05:26:38.532Z,484.00
2022-10-01T05:27:38.722Z,482.00
2022-10-01T05:28:38.609Z,479.00
2022-10-01T05:29:38.809Z,477.00
2022-10-01T05:30:38.595Z,478.00
2022-10-01T05:31:39.272Z,477.00
2022-10-01T05:32:38.645Z,477.00
2022-10-01T05:33:38.849Z,479.00
2022-10-01T05:34:38.693Z,477.00
2022-10-01T05:35:38.985Z,478.00
2022-10-01T05:36:38.731Z,477.00
2022-10-01T05:37:38.936Z,480.00
2022-10-01T05:38:38.784Z,481.00
2022-10-01T05:39:38.939Z,478.00
2022-10-01T05:40:38.847Z,479.00
2022-10-01T05:41:39.148Z,478.00
2022-10-01T05:42:38.877Z,479.00
2022-10-01T05:43:39.075Z,481.00
2022-10-01T05:44:38.927Z,479.00
2022-10-01T05:45:39.114Z,475.00
2022-10-01T05:46:38.961Z,475.00
2022-10-01T05:47:39.230Z,477.00
2022-10-01T05:48:39.007Z,478.00
2022-10-01T05:49:39.208Z,478.00
2022-10-01T05:50:39.069Z,477.00
2022-10-01T05:51:39.191Z,475.00
2022-10-01T05:52:39.117Z,474.00
2022-10-01T05:53:39.370Z,474.00
2022-10-01T05:54:39.163Z,476.00
2022-10-01T05:55:39.315Z,474.00
2022-10-01T05:56:39.210Z,477.00
2022-10-01T05:57:39.412Z,478.00
2022-10-01T05:58:39.262Z,477.00
2022-10-01T05:59:39.461Z,477.00
2022-10-01T06:00:39.309Z,479.00
2022-10-01T06:01:39.577Z,478.00
2022-10-01T06:02:39.509Z,479.00
2022-10-01T06:03:39.542Z,478.00
2022-10-01T06:04:41.269Z,478.00
2022-10-01T06:05:39.589Z,481.00
2022-10-01T06:06:39.425Z,482.00
2022-10-01T06:07:39.592Z,481.00
2022-10-01T06:08:39.472Z,482.00
2022-10-01T06:09:39.619Z,480.00
2022-10-01T06:10:39.554Z,480.00
2022-10-01T06:11:39.673Z,482.00
2022-10-01T06:12:39.550Z,481.00
2022-10-01T06:13:39.759Z,480.00
2022-10-01T06:14:39.580Z,478.00
2022-10-01T06:15:39.717Z,479.00
2022-10-01T06:16:39.985Z,478.00
2022-10-01T06:17:39.623Z,480.00
2022-10-01T06:18:39.773Z,479.00
2022-10-01T06:19:39.651Z,478.00
2022-10-01T06:20:39.858Z,477.00
2022-10-01T06:21:39.676Z,477.00
2022-10-01T06:22:40.030Z,478.00
2022-10-01T06:23:39.723Z,479.00
2022-10-01T06:24:39.842Z,481.00
2022-10-01T06:25:39.769Z,484.00
2022-10-01T06:26:39.933Z,484.00
2022-10-01T06:27:39.818Z,486.00
2022-10-01T06:28:40.067Z,483.00
2022-10-01T06:29:39.869Z,485.00
2022-10-01T06:30:40.008Z,485.00
2022-10-01T06:31:39.954Z,484.00
2022-10-01T06:32:40.139Z,484.00
2022-10-01T06:33:39.933Z,482.00
2022-10-01T06:34:40.102Z,482.00
2022-10-01T06:35:39.971Z,483.00
2022-10-01T06:36:40.175Z,480.00
2022-10-01T06:37:40.005Z,479.00
2022-10-01T06:38:40.155Z,479.00
2022-10-01T06:39:40.050Z,477.00
2022-10-01T06:40:40.343Z,479.00
2022-10-01T06:41:40.078Z,480.00
2022-10-01T06:42:40.320Z,478.00
2022-10-01T06:43:40.113Z,479.00
2022-10-01T06:44:40.498Z,480.00
2022-10-01T06:45:40.208Z,479.00
2022-10-01T06:46:40.391Z,480.00
2022-10-01T06:47:40.164Z,479.00
2022-10-01T06:48:40.361Z,478.00
2022-10-01T06:49:40.189Z,479.00
2022-10-01T06:50:40.353Z,481.00
2022-10-01T06:51:40.222Z,479.00
2022-10-01T06:52:40.471Z,480.00
2022-10-01T06:53:40.257Z,481.00
2022-10-01T06:54:40.451Z,479.00
2022-10-01T06:55:40.296Z,480.00
2022-10-01T06:56:40.498Z,479.00
2022-10-01T06:57:40.329Z,480.00
2022-10-01T06:58:40.533Z,478.00
2022-10-01T06:59:40.356Z,479.00
2022-10-01T07:00:40.873Z,476.00
2022-10-01T07:01:40.447Z,476.00
2022-10-01T07:02:40.676Z,476.00
2022-10-01T07:03:40.451Z,477.00
2022-10-01T07:04:40.618Z,478.00
2022-10-01T07:05:40.444Z,480.00
2022-10-01T07:06:40.634Z,476.00
2022-10-01T07:07:40.471Z,478.00
2022-10-01T07:08:40.614Z,476.00
2022-10-01T07:09:40.501Z,476.00
2022-10-01T07:10:40.749Z,475.00
2022-10-01T07:11:40.530Z,478.00
2022-10-01T07:12:40.870Z,477.00
2022-10-01T07:13:40.548Z,477.00
2022-10-01T07:14:40.695Z,478.00
2022-10-01T07:15:40.575Z,478.00
2022-10-01T07:16:40.877Z,478.00
2022-10-01T07:17:40.595Z,477.00
2022-10-01T07:18:40.788Z,478.00
2022-10-01T07:19:40.622Z,479.00
2022-10-01T07:20:40.886Z,478.00
2022-10-01T07:21:40.653Z,478.00
2022-10-01T07:22:40.941Z,480.00
2022-10-01T07:23:40.663Z,482.00
2022-10-01T07:24:40.801Z,479.00
2022-10-01T07:25:40.687Z,481.00
2022-10-01T07:26:40.884Z,486.00
2022-10-01T07:27:40.706Z,484.00
2022-10-01T07:28:40.938Z,483.00
2022-10-01T07:29:40.716Z,481.00
2022-10-01T07:30:40.911Z,479.00
2022-10-01T07:31:40.788Z,482.00
2022-10-01T07:32:40.880Z,495.00
2022-10-01T07:33:40.751Z,484.00
2022-10-01T07:34:40.978Z,481.00
2022-10-01T07:35:40.761Z,475.00
2022-10-01T07:36:40.866Z,477.00
2022-10-01T07:37:40.776Z,481.00
2022-10-01T07:38:41.024Z,480.00
2022-10-01T07:39:40.779Z,480.00
2022-10-01T07:40:40.949Z,482.00
2022-10-01T07:41:40.773Z,481.00
2022-10-01T07:42:40.965Z,481.00
2022-10-01T07:43:40.778Z,480.00
2022-10-01T07:44:40.921Z,480.00
2022-10-01T07:45:41.100Z,483.00
2022-10-01T07:46:40.804Z,481.00
2022-10-01T07:47:40.993Z,480.00
2022-10-01T07:48:40.805Z,479.00
2022-10-01T07:49:40.942Z,475.00
2022-10-01T07:50:40.799Z,475.00
2022-10-01T07:51:41.080Z,474.00
2022-10-01T07:52:40.799Z,477.00
2022-10-01T07:53:40.992Z,477.00
2022-10-01T07:54:40.819Z,475.00
2022-10-01T07:55:40.944Z,473.00
2022-10-01T07:56:40.832Z,473.00
2022-10-01T07:57:41.039Z,473.00
2022-10-01T07:58:40.819Z,473.00
2022-10-01T07:59:40.959Z,475.00
2022-10-01T08:00:40.850Z,475.00
2022-10-01T08:01:41.093Z,475.00
2022-10-01T08:02:40.910Z,476.00
2022-10-01T08:03:41.102Z,476.00
2022-10-01T08:04:40.832Z,478.00
2022-10-01T08:05:40.959Z,478.00
2022-10-01T08:06:40.839Z,477.00
2022-10-01T08:07:41.003Z,475.00
2022-10-01T08:08:40.830Z,477.00
2022-10-01T08:09:41.652Z,478.00
2022-10-01T08:10:40.830Z,478.00
2022-10-01T08:11:40.964Z,476.00
2022-10-01T08:12:40.831Z,475.00
2022-10-01T08:13:41.015Z,476.00
2022-10-01T08:14:40.837Z,477.00
2022-10-01T08:15:41.017Z,477.00
2022-10-01T08:16:40.924Z,477.00
2022-10-01T08:17:41.015Z,475.00
2022-10-01T08:18:40.847Z,474.00
2022-10-01T08:19:41.021Z,473.00
2022-10-01T08:20:40.938Z,474.00
2022-10-01T08:21:41.011Z,473.00
2022-10-01T08:22:42.317Z,474.00
2022-10-01T08:23:40.948Z,477.00
2022-10-01T08:24:40.835Z,476.00
2022-10-01T08:25:41.006Z,476.00
2022-10-01T08:26:40.877Z,477.00
2022-10-01T08:27:40.986Z,480.00
2022-10-01T08:28:40.823Z,480.00
2022-10-01T08:29:40.967Z,477.00
2022-10-01T08:30:40.831Z,476.00
2022-10-01T08:31:41.040Z,475.00
2022-10-01T08:32:40.859Z,476.00
2022-10-01T08:33:40.983Z,473.00
2022-10-01T08:34:40.803Z,472.00
2022-10-01T08:35:40.926Z,473.00
2022-10-01T08:36:40.806Z,473.00
2022-10-01T08:37:41.031Z,471.00
2022-10-01T08:38:40.797Z,474.00
2022-10-01T08:39:40.972Z,472.00
2022-10-01T08:40:40.787Z,473.00
2022-10-01T08:41:40.924Z,473.00
2022-10-01T08:42:40.774Z,473.00
2022-10-01T08:43:41.012Z,474.00
2022-10-01T08:44:40.754Z,470.00
2022-10-01T08:45:40.969Z,472.00
2022-10-01T08:46:40.738Z,475.00
2022-10-01T08:47:40.910Z,477.00
2022-10-01T08:48:40.782Z,478.00
2022-10-01T08:49:40.854Z,477.00
2022-10-01T08:50:40.729Z,478.00
2022-10-01T08:51:40.875Z,476.00
2022-10-01T08:52:40.724Z,473.00
2022-10-01T08:53:40.905Z,472.00
2022-10-01T08:54:40.775Z,472.00
2022-10-01T08:55:40.857Z,473.00
2022-10-01T08:56:40.714Z,473.00
2022-10-01T08:57:40.891Z,475.00
2022-10-01T08:58:40.702Z,475.00
2022-10-01T08:59:40.931Z,478.00
2022-10-01T09:00:40.752Z,481.00
2022-10-01T09:01:40.901Z,484.00
2022-10-01T09:02:40.696Z,480.00
2022-10-01T09:03:40.867Z,480.00
2022-10-01T09:04:40.762Z,480.00
2022-10-01T09:05:40.869Z,481.00
2022-10-01T09:06:40.733Z,482.00
2022-10-01T09:07:40.822Z,480.00
2022-10-01T09:08:40.676Z,475.00
2022-10-01T09:09:40.828Z,480.00
2022-10-01T09:10:40.681Z,479.00
2022-10-01T09:11:40.804Z,477.00
2022-10-01T09:12:41.055Z,474.00
2022-10-01T09:13:40.684Z,476.00
2022-10-01T09:14:40.768Z,478.00
2022-10-01T09:15:40.676Z,477.00
2022-10-01T09:16:40.905Z,478.00
2022-10-01T09:17:40.675Z,479.00
2022-10-01T09:18:40.888Z,476.00
2022-10-01T09:19:40.989Z,480.00
2022-10-01T09:20:40.813Z,477.00
2022-10-01T09:21:40.698Z,483.00
2022-10-01T09:22:40.871Z,480.00
2022-10-01T09:23:40.701Z,485.00
2022-10-01T09:24:41.884Z,483.00
2022-10-01T09:25:40.809Z,479.00
2022-10-01T09:26:40.681Z,479.00
2022-10-01T09:27:40.898Z,480.00
2022-10-01T09:28:40.664Z,480.00
2022-10-01T09:29:40.778Z,477.00
2022-10-01T09:30:40.868Z,478.00
2022-10-01T09:31:40.728Z,475.00
2022-10-01T09:32:40.767Z,472.00
2022-10-01T09:33:40.623Z,471.00
2022-10-01T09:34:40.736Z,473.00
2022-10-01T09:35:40.751Z,473.00
2022-10-01T09:36:40.650Z,475.00
2022-10-01T09:37:40.752Z,477.00
2022-10-01T09:38:40.577Z,476.00
2022-10-01T09:39:40.734Z,480.00
2022-10-01T09:40:40.539Z,483.00
2022-10-01T09:41:40.712Z,483.00
2022-10-01T09:42:40.502Z,483.00
2022-10-01T09:43:40.665Z,482.00
2022-10-01T09:44:40.453Z,483.00
2022-10-01T09:45:40.629Z,483.00
2022-10-01T09:46:40.409Z,483.00
2022-10-01T09:47:40.630Z,483.00
2022-10-01T09:48:40.377Z,483.00
2022-10-01T09:49:40.531Z,484.00
2022-10-01T09:50:40.334Z,483.00
2022-10-01T09:51:41.115Z,480.00
2022-10-01T09:52:40.300Z,480.00
2022-10-01T09:53:40.511Z,480.00
2022-10-01T09:54:40.255Z,479.00
2022-10-01T09:55:40.416Z,478.00
2022-10-01T09:56:40.218Z,477.00
2022-10-01T09:57:40.434Z,477.00
2022-10-01T09:58:40.195Z,476.00
2022-10-01T09:59:40.326Z,477.00
2022-10-01T10:00:40.138Z,478.00
2022-10-01T10:01:40.330Z,477.00
2022-10-01T10:02:43.369Z,479.00
2022-10-01T10:03:40.350Z,477.00
2022-10-01T10:04:40.063Z,479.00
2022-10-01T10:05:40.274Z,479.00
2022-10-01T10:06:40.030Z,480.00
2022-10-01T10:07:40.186Z,482.00
2022-10-01T10:08:39.994Z,481.00
2022-10-01T10:09:40.107Z,480.00
2022-10-01T10:10:39.960Z,479.00
2022-10-01T10:11:40.202Z,476.00
2022-10-01T10:12:39.899Z,476.00
2022-10-01T10:13:40.055Z,476.00
2022-10-01T10:14:39.843Z,475.00
2022-10-01T10:15:40.002Z,475.00
2022-10-01T10:16:39.795Z,474.00
2022-10-01T10:17:40.004Z,475.00
2022-10-01T10:18:39.746Z,473.00
2022-10-01T10:19:39.908Z,474.00
2022-10-01T10:20:39.697Z,470.00
2022-10-01T10:21:39.864Z,476.00
2022-10-01T10:22:39.650Z,477.00
2022-10-01T10:23:39.806Z,480.00
2022-10-01T10:24:39.610Z,483.00
2022-10-01T10:25:39.763Z,487.00
2022-10-01T10:26:39.864Z,478.00
2022-10-01T10:27:39.692Z,477.00
2022-10-01T10:28:43.330Z,476.00
2022-10-01T10:29:39.673Z,479.00
2022-10-01T10:30:39.486Z,477.00
2022-10-01T10:31:39.753Z,475.00
2022-10-01T10:32:39.449Z,477.00
2022-10-01T10:33:39.639Z,476.00
2022-10-01T10:34:39.428Z,473.00
2022-10-01T10:35:39.821Z,477.00
2022-10-01T10:36:39.427Z,485.00
2022-10-01T10:37:39.527Z,480.00
2022-10-01T10:38:39.381Z,478.00
2022-10-01T10:39:39.570Z,483.00
2022-10-01T10:40:39.377Z,481.00
2022-10-01T10:41:39.958Z,483.00
2022-10-01T10:42:39.372Z,480.00
2022-10-01T10:43:39.619Z,485.00
2022-10-01T10:44:39.369Z,484.00
2022-10-01T10:45:39.547Z,483.00
2022-10-01T10:46:43.975Z,482.00
2022-10-01T10:47:39.598Z,483.00
2022-10-01T10:48:39.376Z,485.00
2022-10-01T10:49:39.491Z,482.00
2022-10-01T10:50:39.370Z,481.00
2022-10-01T10:51:39.609Z,483.00
2022-10-01T10:52:42.644Z,483.00
2022-10-01T10:53:39.638Z,482.00
2022-10-01T10:54:39.361Z,482.00
2022-10-01T10:55:39.540Z,481.00
2022-10-01T10:56:39.347Z,482.00
2022-10-01T10:57:39.465Z,493.00
2022-10-01T10:58:39.335Z,485.00
2022-10-01T10:59:39.567Z,482.00
2022-10-01T11:00:39.326Z,481.00
2022-10-01T11:01:39.577Z,478.00
2022-10-01T11:02:39.383Z,479.00
2022-10-01T11:03:39.552Z,477.00
2022-10-01T11:04:39.342Z,484.00
2022-10-01T11:05:39.487Z,493.00
2022-10-01T11:06:39.332Z,489.00
2022-10-01T11:07:39.504Z,481.00
2022-10-01T11:08:39.293Z,487.00
2022-10-01T11:09:39.453Z,482.00
2022-10-01T11:10:39.283Z,480.00
2022-10-01T11:11:39.453Z,481.00
2022-10-01T11:12:39.270Z,482.00
2022-10-01T11:13:39.456Z,478.00
2022-10-01T11:14:39.253Z,471.00
2022-10-01T11:15:39.648Z,472.00
2022-10-01T11:16:39.247Z,475.00
2022-10-01T11:17:39.401Z,475.00
2022-10-01T11:18:39.224Z,475.00
2022-10-01T11:19:39.384Z,476.00
2022-10-01T11:20:39.202Z,476.00
2022-10-01T11:21:39.314Z,475.00
2022-10-01T11:22:39.187Z,475.00
2022-10-01T11:23:39.408Z,477.00
2022-10-01T11:24:39.155Z,474.00
2022-10-01T11:25:39.272Z,477.00
2022-10-01T11:26:39.128Z,480.00
2022-10-01T11:27:39.298Z,478.00
2022-10-01T11:28:39.090Z,478.00
2022-10-01T11:29:39.490Z,475.00
2022-10-01T11:30:39.053Z,475.00
2022-10-01T11:31:39.231Z,479.00
2022-10-01T11:32:38.995Z,479.00
2022-10-01T11:33:39.301Z,480.00
2022-10-01T11:34:38.945Z,477.00
2022-10-01T11:35:39.076Z,477.00
2022-10-01T11:36:38.881Z,481.00
2022-10-01T11:37:39.095Z,481.00
2022-10-01T11:38:38.819Z,480.00
2022-10-01T11:39:38.936Z,475.00
2022-10-01T11:40:38.764Z,486.00
2022-10-01T11:41:39.006Z,483.00
2022-10-01T11:42:38.709Z,480.00
2022-10-01T11:43:38.798Z,480.00
2022-10-01T11:44:38.645Z,477.00
2022-10-01T11:45:38.802Z,476.00
2022-10-01T11:46:39.112Z,477.00
2022-10-01T11:47:38.741Z,468.00
2022-10-01T11:48:38.543Z,469.00
2022-10-01T11:49:38.697Z,471.00
2022-10-01T11:50:39.430Z,475.00
2022-10-01T11:51:38.617Z,474.00
2022-10-01T11:52:38.474Z,473.00
2022-10-01T11:53:38.690Z,472.00
2022-10-01T11:54:38.423Z,473.00
2022-10-01T11:55:38.538Z,474.00
2022-10-01T11:56:38.386Z,474.00
2022-10-01T11:57:38.531Z,471.00
2022-10-01T11:58:38.332Z,473.00
2022-10-01T11:59:38.493Z,473.00
2022-10-01T12:00:38.280Z,477.00
2022-10-01T12:01:38.519Z,478.00
2022-10-01T12:02:38.228Z,476.00
2022-10-01T12:03:38.417Z,475.00
2022-10-01T12:04:38.180Z,476.00
2022-10-01T12:05:38.389Z,478.00
2022-10-01T12:06:38.378Z,476.00
2022-10-01T12:07:38.289Z,475.00
2022-10-01T12:08:38.084Z,476.00
2022-10-01T12:09:38.340Z,477.00
2022-10-01T12:10:38.049Z,476.00
2022-10-01T12:11:38.226Z,477.00
2022-10-01T12:12:37.997Z,478.00
2022-10-01T12:13:38.153Z,481.00
2022-10-01T12:14:37.946Z,474.00
2022-10-01T12:15:38.043Z,472.00
2022-10-01T12:16:38.447Z,467.00
2022-10-01T12:17:38.060Z,470.00
2022-10-01T12:18:37.840Z,475.00
2022-10-01T12:19:37.946Z,480.00
2022-10-01T12:20:37.790Z,478.00
2022-10-01T12:21:37.960Z,476.00
2022-10-01T12:22:37.755Z,479.00
2022-10-01T12:23:37.947Z,477.00
2022-10-01T12:24:37.707Z,476.00
2022-10-01T12:25:37.823Z,476.00
2022-10-01T12:26:38.105Z,476.00
2022-10-01T12:27:37.861Z,474.00
2022-10-01T12:28:37.673Z,474.00